CHH147 ZJHK-ZHCC
Flight info
| Callsign | CHH147 |
|---|---|
| Flight time | N/A |
| Altitude | 361 |
| Route | AGTEL W71 LH R339 BHY DCT LBN/K0913S1070 R343 EXURI/K0902S1130 R343 GOSMA W82 UPMAT W56 IGMIG IGM9U |
| Aircraft | A346/M-SDE2E3GHIJ3J4J5LM1ORWXY/LB1D1 |
Departure
| Time | 2026-05-07 11:55 |
|---|---|
| Airport | Haikou Meilan International Airport (ZJHK) |
Arrival
| Time | N/A |
|---|---|
| Airport | Zhengzhou Xinzheng International Airport (ZHCC) |
| Time | Latitude | Longitude | Altitude | Speed | Heading |
|---|---|---|---|---|---|
| 2026-05-07 11:41 | 19.94922 | 110.45539 | 65 ft | 0 kts | 230° |
| 2026-05-07 11:41 | 19.94934 | 110.45553 | 56 ft | 4 kts | 219° |
| 2026-05-07 11:41 | 19.94955 | 110.45566 | 56 ft | 4 kts | 196° |
| 2026-05-07 11:41 | 19.94979 | 110.45568 | 55 ft | 4 kts | 170° |
| 2026-05-07 11:42 | 19.94999 | 110.45561 | 55 ft | 4 kts | 152° |
| 2026-05-07 11:42 | 19.95021 | 110.45546 | 55 ft | 4 kts | 138° |
| 2026-05-07 11:42 | 19.95039 | 110.45526 | 55 ft | 4 kts | 128° |
| 2026-05-07 11:42 | 19.95054 | 110.45502 | 55 ft | 4 kts | 116° |
| 2026-05-07 11:43 | 19.95062 | 110.45477 | 55 ft | 4 kts | 100° |
| 2026-05-07 11:43 | 19.95064 | 110.45468 | 55 ft | 0 kts | 95° |
| 2026-05-07 11:43 | 19.95064 | 110.45469 | 55 ft | 0 kts | 95° |
| 2026-05-07 11:46 | 19.95063 | 110.45470 | 55 ft | 1 kts | 94° |
| 2026-05-07 11:46 | 19.95063 | 110.45484 | 55 ft | 3 kts | 91° |
| 2026-05-07 11:47 | 19.95066 | 110.45514 | 55 ft | 5 kts | 71° |
| 2026-05-07 11:47 | 19.95094 | 110.45535 | 56 ft | 6 kts | 359° |
| 2026-05-07 11:47 | 19.95150 | 110.45534 | 58 ft | 10 kts | 359° |
| 2026-05-07 11:47 | 19.95174 | 110.45530 | 59 ft | 3 kts | 347° |
| 2026-05-07 11:48 | 19.95199 | 110.45517 | 59 ft | 4 kts | 313° |
| 2026-05-07 11:48 | 19.95204 | 110.45478 | 60 ft | 7 kts | 270° |
| 2026-05-07 11:48 | 19.95204 | 110.45415 | 63 ft | 10 kts | 269° |
| 2026-05-07 11:48 | 19.95202 | 110.45330 | 63 ft | 13 kts | 269° |
| 2026-05-07 11:49 | 19.95201 | 110.45226 | 62 ft | 15 kts | 269° |
| 2026-05-07 11:49 | 19.95200 | 110.45110 | 61 ft | 13 kts | 270° |
| 2026-05-07 11:49 | 19.95201 | 110.45005 | 60 ft | 15 kts | 270° |
| 2026-05-07 11:49 | 19.95201 | 110.44903 | 60 ft | 7 kts | 270° |
| 2026-05-07 11:50 | 19.95201 | 110.44861 | 60 ft | 4 kts | 271° |
| 2026-05-07 11:50 | 19.95215 | 110.44829 | 53 ft | 6 kts | 323° |
| 2026-05-07 11:50 | 19.95248 | 110.44820 | 56 ft | 0 kts | 357° |
| 2026-05-07 11:51 | 19.95259 | 110.44819 | 52 ft | 4 kts | 357° |
| 2026-05-07 11:52 | 19.95299 | 110.44821 | 51 ft | 8 kts | 11° |
| 2026-05-07 11:52 | 19.95355 | 110.44837 | 54 ft | 9 kts | 27° |
| 2026-05-07 11:52 | 19.95374 | 110.44867 | 52 ft | 0 kts | 88° |
| 2026-05-07 11:52 | 19.95374 | 110.44869 | 52 ft | 0 kts | 89° |
| 2026-05-07 11:53 | 19.95375 | 110.44906 | 58 ft | 25 kts | 89° |
| 2026-05-07 11:54 | 19.95376 | 110.45323 | 62 ft | 90 kts | 90° |
| 2026-05-07 11:54 | 19.95373 | 110.46191 | 65 ft | 146 kts | 90° |
| 2026-05-07 11:54 | 19.95380 | 110.47436 | 75 ft | 192 kts | 90° |
| 2026-05-07 11:54 | 19.95399 | 110.48843 | 655 ft | 194 kts | 87° |
| 2026-05-07 11:55 | 19.95868 | 110.50108 | 1244 ft | 196 kts | 49° |
| 2026-05-07 11:55 | 19.97062 | 110.50681 | 1740 ft | 205 kts | 4° |
| 2026-05-07 11:55 | 19.98451 | 110.50328 | 2160 ft | 218 kts | 331° |
| 2026-05-07 11:55 | 19.99730 | 110.49375 | 2514 ft | 232 kts | 322° |
| 2026-05-07 11:56 | 20.01021 | 110.48331 | 2908 ft | 239 kts | 323° |
| 2026-05-07 11:56 | 20.02380 | 110.47287 | 3026 ft | 243 kts | 324° |
| 2026-05-07 11:56 | 20.03785 | 110.46259 | 3031 ft | 250 kts | 326° |
| 2026-05-07 11:56 | 20.05238 | 110.45230 | 3037 ft | 249 kts | 327° |
| 2026-05-07 11:57 | 20.06739 | 110.44281 | 2993 ft | 254 kts | 334° |
| 2026-05-07 11:57 | 20.08408 | 110.43557 | 3103 ft | 267 kts | 342° |
| 2026-05-07 11:57 | 20.10224 | 110.42941 | 3689 ft | 277 kts | 343° |
| 2026-05-07 11:57 | 20.12064 | 110.42341 | 4633 ft | 275 kts | 343° |
| 2026-05-07 11:58 | 20.13887 | 110.41744 | 5527 ft | 275 kts | 343° |
| 2026-05-07 11:58 | 20.15727 | 110.41135 | 6337 ft | 279 kts | 342° |
| 2026-05-07 11:58 | 20.17589 | 110.40516 | 7071 ft | 282 kts | 342° |
| 2026-05-07 11:58 | 20.18818 | 110.40108 | 7569 ft | 284 kts | 342° |
| 2026-05-07 11:59 | 20.21355 | 110.39260 | 8588 ft | 288 kts | 342° |
| 2026-05-07 11:59 | 20.23277 | 110.38619 | 9337 ft | 290 kts | 341° |
| 2026-05-07 11:59 | 20.24552 | 110.38190 | 9820 ft | 292 kts | 341° |
| 2026-05-07 11:59 | 20.26499 | 110.37531 | 10440 ft | 298 kts | 341° |
| 2026-05-07 12:00 | 20.28515 | 110.36829 | 10780 ft | 314 kts | 341° |
| 2026-05-07 12:00 | 20.30653 | 110.36079 | 11097 ft | 330 kts | 340° |
| 2026-05-07 12:00 | 20.32885 | 110.35298 | 11385 ft | 347 kts | 341° |
| 2026-05-07 12:00 | 20.35230 | 110.34480 | 11675 ft | 363 kts | 341° |
| 2026-05-07 12:01 | 20.37681 | 110.33628 | 11957 ft | 378 kts | 340° |
| 2026-05-07 12:01 | 20.40216 | 110.32741 | 12348 ft | 389 kts | 340° |
| 2026-05-07 12:01 | 20.42801 | 110.31837 | 12974 ft | 392 kts | 340° |
| 2026-05-07 12:01 | 20.45412 | 110.30927 | 13652 ft | 395 kts | 340° |
| 2026-05-07 12:02 | 20.48081 | 110.30093 | 14198 ft | 400 kts | 345° |
| 2026-05-07 12:02 | 20.50838 | 110.29618 | 14745 ft | 405 kts | 353° |
| 2026-05-07 12:02 | 20.53677 | 110.29535 | 15317 ft | 409 kts | 360° |
| 2026-05-07 12:02 | 20.56532 | 110.29691 | 15879 ft | 413 kts | 1° |
| 2026-05-07 12:03 | 20.59400 | 110.29893 | 16434 ft | 416 kts | 2° |
| 2026-05-07 12:03 | 20.62304 | 110.30101 | 16968 ft | 419 kts | 1° |
| 2026-05-07 12:03 | 20.65226 | 110.30305 | 17492 ft | 422 kts | 1° |
| 2026-05-07 12:03 | 20.68131 | 110.30503 | 18007 ft | 425 kts | 1° |
| 2026-05-07 12:04 | 20.71093 | 110.30701 | 18470 ft | 429 kts | 1° |
| 2026-05-07 12:04 | 20.74125 | 110.30901 | 18911 ft | 431 kts | 1° |
| 2026-05-07 12:04 | 20.77087 | 110.31096 | 19368 ft | 433 kts | 1° |
| 2026-05-07 12:04 | 20.80146 | 110.31296 | 19828 ft | 436 kts | 1° |
| 2026-05-07 12:05 | 20.83137 | 110.31493 | 20267 ft | 438 kts | 1° |
| 2026-05-07 12:05 | 20.86183 | 110.31693 | 20716 ft | 440 kts | 1° |
| 2026-05-07 12:05 | 20.89262 | 110.31896 | 21152 ft | 443 kts | 1° |
| 2026-05-07 12:05 | 20.92347 | 110.32099 | 21593 ft | 445 kts | 1° |
| 2026-05-07 12:06 | 20.95443 | 110.32303 | 22036 ft | 447 kts | 1° |
| 2026-05-07 12:06 | 20.98554 | 110.32507 | 22463 ft | 450 kts | 1° |
| 2026-05-07 12:06 | 21.01694 | 110.32697 | 22883 ft | 452 kts | 1° |
| 2026-05-07 12:06 | 21.04838 | 110.32866 | 23292 ft | 454 kts | 1° |
| 2026-05-07 12:07 | 21.08003 | 110.32914 | 23634 ft | 456 kts | 353° |
| 2026-05-07 12:07 | 21.11079 | 110.32134 | 23915 ft | 455 kts | 337° |
| 2026-05-07 12:07 | 21.13822 | 110.30476 | 24269 ft | 454 kts | 322° |
| 2026-05-07 12:07 | 21.16048 | 110.28089 | 24595 ft | 455 kts | 307° |
| 2026-05-07 12:08 | 21.17688 | 110.25172 | 24938 ft | 456 kts | 298° |
| 2026-05-07 12:08 | 21.19201 | 110.22145 | 25290 ft | 459 kts | 298° |
| 2026-05-07 12:08 | 21.20705 | 110.19119 | 25607 ft | 461 kts | 298° |
| 2026-05-07 12:08 | 21.22223 | 110.16073 | 25933 ft | 464 kts | 298° |
| 2026-05-07 12:09 | 21.23751 | 110.13016 | 26262 ft | 466 kts | 298° |
| 2026-05-07 12:09 | 21.25288 | 110.09945 | 26602 ft | 467 kts | 298° |
| 2026-05-07 12:09 | 21.26833 | 110.06866 | 26937 ft | 469 kts | 298° |
| 2026-05-07 12:09 | 21.28385 | 110.03774 | 27253 ft | 471 kts | 298° |
| 2026-05-07 12:10 | 21.29943 | 110.00670 | 27581 ft | 474 kts | 298° |
| 2026-05-07 12:10 | 21.31508 | 109.97552 | 27875 ft | 476 kts | 298° |
| 2026-05-07 12:10 | 21.33083 | 109.94411 | 28168 ft | 478 kts | 298° |
| 2026-05-07 12:10 | 21.34662 | 109.91263 | 28489 ft | 480 kts | 298° |
| 2026-05-07 12:11 | 21.36218 | 109.88158 | 28900 ft | 479 kts | 298° |
| 2026-05-07 12:11 | 21.37798 | 109.85003 | 29391 ft | 478 kts | 298° |
| 2026-05-07 12:11 | 21.39413 | 109.81777 | 29871 ft | 476 kts | 297° |
| 2026-05-07 12:11 | 21.40958 | 109.78689 | 30253 ft | 475 kts | 297° |
| 2026-05-07 12:12 | 21.42543 | 109.75517 | 30605 ft | 475 kts | 297° |
| 2026-05-07 12:12 | 21.44082 | 109.72435 | 30987 ft | 473 kts | 297° |
| 2026-05-07 12:12 | 21.45635 | 109.69324 | 31405 ft | 472 kts | 297° |
| 2026-05-07 12:12 | 21.47182 | 109.66225 | 31829 ft | 469 kts | 297° |
| 2026-05-07 12:13 | 21.48720 | 109.63143 | 32255 ft | 467 kts | 297° |
| 2026-05-07 12:13 | 21.50253 | 109.60066 | 32713 ft | 465 kts | 297° |
| 2026-05-07 12:13 | 21.51776 | 109.57009 | 33129 ft | 463 kts | 297° |
| 2026-05-07 12:13 | 21.53304 | 109.53969 | 33547 ft | 461 kts | 300° |
| 2026-05-07 12:14 | 21.55096 | 109.51121 | 33938 ft | 460 kts | 307° |
| 2026-05-07 12:14 | 21.57242 | 109.48561 | 34292 ft | 460 kts | 315° |
| 2026-05-07 12:14 | 21.59682 | 109.46341 | 34632 ft | 460 kts | 322° |
| 2026-05-07 12:14 | 21.62386 | 109.44487 | 34945 ft | 462 kts | 329° |
| 2026-05-07 12:15 | 21.65304 | 109.43038 | 35248 ft | 464 kts | 337° |
| 2026-05-07 12:15 | 21.68398 | 109.42020 | 35501 ft | 467 kts | 345° |
| 2026-05-07 12:15 | 21.71614 | 109.41431 | 35729 ft | 470 kts | 349° |
| 2026-05-07 12:15 | 21.74865 | 109.40995 | 35893 ft | 472 kts | 350° |
| 2026-05-07 12:16 | 21.78127 | 109.40585 | 35947 ft | 473 kts | 351° |
| 2026-05-07 12:16 | 21.84662 | 109.39766 | 35979 ft | 473 kts | 350° |
| 2026-05-07 12:17 | 21.91325 | 109.38917 | 35984 ft | 473 kts | 350° |
| 2026-05-07 12:17 | 21.97627 | 109.38102 | 35987 ft | 472 kts | 351° |
| 2026-05-07 12:18 | 22.04131 | 109.37262 | 35987 ft | 471 kts | 351° |
| 2026-05-07 12:18 | 22.10646 | 109.36419 | 35988 ft | 471 kts | 351° |
| 2026-05-07 12:19 | 22.17156 | 109.35574 | 35989 ft | 471 kts | 351° |
| 2026-05-07 12:19 | 22.23667 | 109.34728 | 35991 ft | 471 kts | 351° |
| 2026-05-07 12:20 | 22.30202 | 109.33874 | 35991 ft | 474 kts | 351° |
| 2026-05-07 12:20 | 22.36770 | 109.33021 | 35989 ft | 474 kts | 351° |
| 2026-05-07 12:21 | 22.43323 | 109.32169 | 35996 ft | 474 kts | 351° |
| 2026-05-07 12:21 | 22.49879 | 109.31315 | 35992 ft | 474 kts | 351° |
| 2026-05-07 12:22 | 22.56432 | 109.30460 | 35992 ft | 475 kts | 351° |
| 2026-05-07 12:22 | 22.63008 | 109.29603 | 35990 ft | 477 kts | 351° |
| 2026-05-07 12:23 | 22.69599 | 109.28739 | 35988 ft | 477 kts | 351° |
| 2026-05-07 12:23 | 22.76187 | 109.27876 | 35990 ft | 477 kts | 351° |
| 2026-05-07 12:24 | 22.82774 | 109.27013 | 35995 ft | 477 kts | 351° |
| 2026-05-07 12:24 | 22.89362 | 109.26157 | 35997 ft | 478 kts | 349° |
| 2026-05-07 12:25 | 22.95981 | 109.25286 | 35995 ft | 479 kts | 349° |
| 2026-05-07 12:25 | 23.02603 | 109.24409 | 35994 ft | 479 kts | 349° |
| 2026-05-07 12:26 | 23.09224 | 109.23536 | 35993 ft | 479 kts | 349° |
| 2026-05-07 12:26 | 23.15846 | 109.22664 | 35993 ft | 480 kts | 349° |
| 2026-05-07 12:27 | 23.22410 | 109.21803 | 35996 ft | 477 kts | 349° |
| 2026-05-07 12:27 | 23.28988 | 109.20933 | 35994 ft | 476 kts | 349° |
| 2026-05-07 12:28 | 23.35559 | 109.20063 | 35990 ft | 476 kts | 349° |
| 2026-05-07 12:28 | 23.42177 | 109.19187 | 35990 ft | 476 kts | 349° |
| 2026-05-07 12:29 | 23.48700 | 109.18325 | 36001 ft | 475 kts | 349° |
| 2026-05-07 12:29 | 23.55267 | 109.17458 | 35995 ft | 475 kts | 348° |
| 2026-05-07 12:30 | 23.61838 | 109.16583 | 36066 ft | 478 kts | 348° |
| 2026-05-07 12:30 | 23.65140 | 109.16152 | 36348 ft | 478 kts | 350° |
| 2026-05-07 12:30 | 23.68471 | 109.15965 | 36650 ft | 481 kts | 355° |
| 2026-05-07 12:30 | 23.71825 | 109.16156 | 36889 ft | 486 kts | 1° |
| 2026-05-07 12:31 | 23.75188 | 109.16735 | 36984 ft | 492 kts | 7° |
| 2026-05-07 12:31 | 23.81738 | 109.19091 | 37004 ft | 501 kts | 20° |
| 2026-05-07 12:32 | 23.87807 | 109.22926 | 37000 ft | 506 kts | 29° |
| 2026-05-07 12:32 | 23.93648 | 109.27244 | 36998 ft | 507 kts | 30° |
| 2026-05-07 12:33 | 24.02404 | 109.33716 | 36998 ft | 506 kts | 29° |
| 2026-05-07 12:33 | 24.08250 | 109.38012 | 36994 ft | 506 kts | 29° |
| 2026-05-07 12:34 | 24.14103 | 109.42314 | 36999 ft | 506 kts | 29° |
| 2026-05-07 12:34 | 24.19955 | 109.46616 | 36999 ft | 506 kts | 29° |
| 2026-05-07 12:35 | 24.25798 | 109.50919 | 36998 ft | 506 kts | 29° |
| 2026-05-07 12:35 | 24.31653 | 109.55235 | 36996 ft | 506 kts | 29° |
| 2026-05-07 12:36 | 24.37493 | 109.59549 | 37011 ft | 505 kts | 29° |
| 2026-05-07 12:36 | 24.43319 | 109.63859 | 37003 ft | 505 kts | 29° |
| 2026-05-07 12:37 | 24.49148 | 109.68183 | 37009 ft | 505 kts | 29° |
| 2026-05-07 12:37 | 24.54973 | 109.72509 | 37009 ft | 505 kts | 29° |
| 2026-05-07 12:38 | 24.60797 | 109.76841 | 37028 ft | 505 kts | 29° |
| 2026-05-07 12:38 | 24.66620 | 109.81181 | 37031 ft | 505 kts | 29° |
| 2026-05-07 12:39 | 24.72451 | 109.85504 | 37027 ft | 505 kts | 28° |
| 2026-05-07 12:39 | 24.78287 | 109.89821 | 37032 ft | 505 kts | 28° |
| 2026-05-07 12:40 | 24.84117 | 109.94140 | 37029 ft | 505 kts | 28° |
| 2026-05-07 12:40 | 24.89942 | 109.98470 | 37051 ft | 505 kts | 28° |
| 2026-05-07 12:41 | 24.95775 | 110.02807 | 37048 ft | 505 kts | 28° |
| 2026-05-07 12:41 | 25.01552 | 110.07105 | 37053 ft | 505 kts | 28° |
| 2026-05-07 12:42 | 25.07416 | 110.11473 | 37057 ft | 505 kts | 28° |
| 2026-05-07 12:42 | 25.13204 | 110.15790 | 37059 ft | 505 kts | 28° |
| 2026-05-07 12:43 | 25.19028 | 110.20140 | 37062 ft | 505 kts | 28° |
| 2026-05-07 12:43 | 25.24882 | 110.24498 | 37060 ft | 505 kts | 28° |
| 2026-05-07 12:44 | 25.30712 | 110.28825 | 37062 ft | 505 kts | 28° |
| 2026-05-07 12:44 | 25.36498 | 110.33125 | 37062 ft | 505 kts | 28° |
| 2026-05-07 12:45 | 25.42328 | 110.37466 | 37084 ft | 504 kts | 28° |
| 2026-05-07 12:45 | 25.48165 | 110.41776 | 37070 ft | 504 kts | 28° |
| 2026-05-07 12:46 | 25.53060 | 110.45375 | 37086 ft | 504 kts | 28° |
| 2026-05-07 12:46 | 25.59885 | 110.50301 | 37095 ft | 503 kts | 26° |
| 2026-05-07 12:47 | 25.64871 | 110.53723 | 37107 ft | 503 kts | 26° |
| 2026-05-07 12:47 | 25.70817 | 110.57818 | 37106 ft | 503 kts | 26° |
| 2026-05-07 12:48 | 25.76722 | 110.61906 | 37122 ft | 503 kts | 26° |
| 2026-05-07 12:48 | 25.82699 | 110.65948 | 37126 ft | 503 kts | 26° |
| 2026-05-07 12:49 | 25.88677 | 110.69982 | 37128 ft | 503 kts | 26° |
| 2026-05-07 12:49 | 25.94655 | 110.74027 | 37149 ft | 503 kts | 26° |
| 2026-05-07 12:50 | 26.00622 | 110.78076 | 37138 ft | 503 kts | 26° |
| 2026-05-07 12:50 | 26.06601 | 110.82140 | 37149 ft | 503 kts | 26° |
| 2026-05-07 12:51 | 26.12573 | 110.86184 | 37144 ft | 502 kts | 26° |
| 2026-05-07 12:51 | 26.18549 | 110.90235 | 37152 ft | 503 kts | 25° |
| 2026-05-07 12:52 | 26.24525 | 110.94290 | 37169 ft | 503 kts | 25° |
| 2026-05-07 12:52 | 26.30495 | 110.98347 | 37148 ft | 502 kts | 26° |
| 2026-05-07 12:53 | 26.36465 | 111.02409 | 37151 ft | 503 kts | 26° |
| 2026-05-07 12:53 | 26.42443 | 111.06483 | 37151 ft | 502 kts | 26° |
| 2026-05-07 12:54 | 26.48361 | 111.10521 | 37158 ft | 502 kts | 26° |
| 2026-05-07 12:54 | 26.54332 | 111.14598 | 37154 ft | 503 kts | 26° |
| 2026-05-07 12:55 | 26.60282 | 111.18703 | 37147 ft | 503 kts | 27° |
| 2026-05-07 12:55 | 26.66141 | 111.22999 | 37145 ft | 504 kts | 28° |
| 2026-05-07 12:56 | 26.71999 | 111.27322 | 37149 ft | 504 kts | 28° |
| 2026-05-07 12:56 | 26.77864 | 111.31632 | 37148 ft | 504 kts | 27° |
| 2026-05-07 12:57 | 26.83732 | 111.35940 | 37145 ft | 504 kts | 27° |
| 2026-05-07 12:57 | 26.89602 | 111.40253 | 37149 ft | 504 kts | 27° |
| 2026-05-07 12:58 | 26.95551 | 111.44359 | 37141 ft | 501 kts | 25° |
| 2026-05-07 12:58 | 27.01572 | 111.48307 | 37150 ft | 502 kts | 24° |
| 2026-05-07 12:59 | 27.07612 | 111.52268 | 37151 ft | 503 kts | 24° |
| 2026-05-07 12:59 | 27.13649 | 111.56244 | 37139 ft | 503 kts | 24° |
| 2026-05-07 13:00 | 27.19671 | 111.60252 | 37146 ft | 504 kts | 25° |
| 2026-05-07 13:00 | 27.25651 | 111.64397 | 37157 ft | 505 kts | 25° |
| 2026-05-07 13:01 | 27.31641 | 111.68555 | 37151 ft | 506 kts | 25° |
| 2026-05-07 13:01 | 27.37637 | 111.72706 | 37157 ft | 506 kts | 25° |
| 2026-05-07 13:02 | 27.43639 | 111.76864 | 37156 ft | 506 kts | 25° |
| 2026-05-07 13:02 | 27.49634 | 111.81024 | 37169 ft | 507 kts | 25° |
| 2026-05-07 13:03 | 27.55648 | 111.85204 | 37167 ft | 508 kts | 25° |
| 2026-05-07 13:03 | 27.61665 | 111.89390 | 37157 ft | 508 kts | 25° |
| 2026-05-07 13:04 | 27.67679 | 111.93579 | 37155 ft | 508 kts | 25° |
| 2026-05-07 13:04 | 27.73651 | 111.97746 | 37177 ft | 508 kts | 25° |
| 2026-05-07 13:05 | 27.79708 | 112.01976 | 37163 ft | 509 kts | 25° |
| 2026-05-07 13:05 | 27.85732 | 112.06182 | 37151 ft | 509 kts | 25° |
| 2026-05-07 13:06 | 27.91758 | 112.10395 | 37162 ft | 509 kts | 25° |
| 2026-05-07 13:06 | 27.97744 | 112.14581 | 37181 ft | 509 kts | 24° |
| 2026-05-07 13:07 | 28.03818 | 112.18766 | 37167 ft | 510 kts | 24° |
| 2026-05-07 13:07 | 28.09786 | 112.23198 | 37164 ft | 514 kts | 28° |
| 2026-05-07 13:08 | 28.15605 | 112.27927 | 37163 ft | 515 kts | 29° |
| 2026-05-07 13:08 | 28.21464 | 112.32647 | 37179 ft | 514 kts | 28° |
| 2026-05-07 13:09 | 28.27337 | 112.37301 | 37170 ft | 515 kts | 27° |
| 2026-05-07 13:09 | 28.33216 | 112.41959 | 37167 ft | 515 kts | 27° |
| 2026-05-07 13:10 | 28.39086 | 112.46622 | 37155 ft | 515 kts | 28° |
| 2026-05-07 13:10 | 28.44967 | 112.51305 | 37159 ft | 516 kts | 28° |
| 2026-05-07 13:11 | 28.50844 | 112.55999 | 37168 ft | 516 kts | 27° |
| 2026-05-07 13:11 | 28.56745 | 112.60711 | 37161 ft | 517 kts | 27° |
| 2026-05-07 13:12 | 28.62631 | 112.65419 | 37161 ft | 517 kts | 27° |
| 2026-05-07 13:12 | 28.68511 | 112.70129 | 37163 ft | 517 kts | 27° |
| 2026-05-07 13:13 | 28.74403 | 112.74858 | 37168 ft | 518 kts | 27° |
| 2026-05-07 13:13 | 28.80295 | 112.79587 | 37152 ft | 518 kts | 27° |
| 2026-05-07 13:14 | 28.86187 | 112.84326 | 37164 ft | 518 kts | 27° |
| 2026-05-07 13:14 | 28.92077 | 112.89072 | 37157 ft | 518 kts | 27° |
| 2026-05-07 13:15 | 28.97930 | 112.93797 | 37174 ft | 519 kts | 27° |
| 2026-05-07 13:15 | 29.03824 | 112.98557 | 37157 ft | 519 kts | 27° |
| 2026-05-07 13:16 | 29.09716 | 113.03323 | 37155 ft | 519 kts | 27° |
| 2026-05-07 13:16 | 29.15631 | 113.08114 | 37163 ft | 519 kts | 27° |
| 2026-05-07 13:17 | 29.21551 | 113.12913 | 37299 ft | 523 kts | 28° |
| 2026-05-07 13:17 | 29.24505 | 113.15315 | 37696 ft | 520 kts | 27° |
| 2026-05-07 13:17 | 29.27450 | 113.17715 | 38017 ft | 518 kts | 27° |
| 2026-05-07 13:18 | 29.30384 | 113.20103 | 37901 ft | 517 kts | 27° |
| 2026-05-07 13:18 | 29.33324 | 113.22454 | 37890 ft | 514 kts | 25° |
| 2026-05-07 13:18 | 29.39448 | 113.26632 | 37866 ft | 507 kts | 19° |
| 2026-05-07 13:19 | 29.45703 | 113.30364 | 37877 ft | 506 kts | 18° |
| 2026-05-07 13:19 | 29.51972 | 113.34070 | 37868 ft | 507 kts | 18° |
| 2026-05-07 13:20 | 29.58252 | 113.37809 | 37869 ft | 507 kts | 19° |
| 2026-05-07 13:20 | 29.64512 | 113.41551 | 37907 ft | 507 kts | 18° |
| 2026-05-07 13:21 | 29.70783 | 113.45307 | 37877 ft | 508 kts | 19° |
| 2026-05-07 13:21 | 29.77046 | 113.49063 | 37879 ft | 508 kts | 19° |
| 2026-05-07 13:22 | 29.83311 | 113.52826 | 37876 ft | 508 kts | 19° |
| 2026-05-07 13:22 | 29.86443 | 113.54707 | 37589 ft | 509 kts | 19° |
| 2026-05-07 13:22 | 29.89580 | 113.56594 | 37253 ft | 509 kts | 19° |
| 2026-05-07 13:23 | 29.95891 | 113.60253 | 37182 ft | 505 kts | 15° |
| 2026-05-07 13:23 | 30.02334 | 113.63497 | 37177 ft | 504 kts | 14° |
| 2026-05-07 13:24 | 30.08783 | 113.66692 | 37182 ft | 504 kts | 14° |
| 2026-05-07 13:24 | 30.15226 | 113.69900 | 37197 ft | 504 kts | 14° |
| 2026-05-07 13:25 | 30.21660 | 113.73115 | 36946 ft | 504 kts | 14° |
| 2026-05-07 13:25 | 30.24883 | 113.74723 | 36570 ft | 505 kts | 14° |
| 2026-05-07 13:25 | 30.28133 | 113.76346 | 36183 ft | 506 kts | 15° |
| 2026-05-07 13:26 | 30.31375 | 113.77969 | 35826 ft | 507 kts | 15° |
| 2026-05-07 13:26 | 30.34616 | 113.79594 | 35471 ft | 508 kts | 15° |
| 2026-05-07 13:26 | 30.37860 | 113.81224 | 35218 ft | 508 kts | 15° |
| 2026-05-07 13:26 | 30.41107 | 113.82857 | 35196 ft | 509 kts | 15° |
| 2026-05-07 13:27 | 30.47617 | 113.86134 | 35187 ft | 510 kts | 15° |
| 2026-05-07 13:27 | 30.54109 | 113.89404 | 35183 ft | 510 kts | 15° |
| 2026-05-07 13:28 | 30.60628 | 113.92692 | 35205 ft | 510 kts | 15° |
| 2026-05-07 13:28 | 30.67173 | 113.95942 | 35199 ft | 509 kts | 14° |
| 2026-05-07 13:29 | 30.73669 | 113.99315 | 35199 ft | 513 kts | 18° |
| 2026-05-07 13:29 | 30.80119 | 114.02913 | 35197 ft | 513 kts | 17° |
| 2026-05-07 13:30 | 30.86611 | 114.06430 | 35202 ft | 513 kts | 17° |
| 2026-05-07 13:30 | 30.93072 | 114.09920 | 35195 ft | 512 kts | 17° |
| 2026-05-07 13:31 | 30.99534 | 114.13421 | 35194 ft | 512 kts | 17° |
| 2026-05-07 13:31 | 31.05981 | 114.16926 | 35228 ft | 512 kts | 17° |
| 2026-05-07 13:32 | 31.12442 | 114.20440 | 35211 ft | 512 kts | 17° |
| 2026-05-07 13:32 | 31.18928 | 114.23970 | 35199 ft | 512 kts | 17° |
| 2026-05-07 13:33 | 31.25384 | 114.27491 | 35204 ft | 512 kts | 17° |
| 2026-05-07 13:33 | 31.31954 | 114.30540 | 35219 ft | 503 kts | 9° |
| 2026-05-07 13:34 | 31.42051 | 114.33139 | 35206 ft | 489 kts | 358° |
| 2026-05-07 13:35 | 31.47648 | 114.33590 | 35203 ft | 482 kts | 353° |
| 2026-05-07 13:35 | 31.54353 | 114.33763 | 35210 ft | 482 kts | 352° |
| 2026-05-07 13:36 | 31.61064 | 114.33929 | 35216 ft | 482 kts | 352° |
| 2026-05-07 13:36 | 31.67774 | 114.34115 | 35216 ft | 483 kts | 353° |